createdAt,value
2023-01-13T00:00:36.469Z,9.00
2023-01-13T00:03:04.684Z,8.90
2023-01-13T00:05:35.218Z,9.00
2023-01-13T00:08:04.992Z,9.00
2023-01-13T00:10:33.124Z,8.90
2023-01-13T00:13:04.163Z,8.90
2023-01-13T00:15:32.425Z,8.90
2023-01-13T00:18:00.370Z,9.00
2023-01-13T00:20:28.443Z,9.00
2023-01-13T00:22:56.738Z,9.00
2023-01-13T00:25:24.644Z,8.90
2023-01-13T00:27:52.804Z,9.00
2023-01-13T00:30:22.201Z,9.00
2023-01-13T00:32:50.135Z,9.00
2023-01-13T00:35:18.183Z,9.00
2023-01-13T00:37:47.997Z,9.00
2023-01-13T00:40:15.931Z,9.00
2023-01-13T00:43:12.761Z,9.00
2023-01-13T00:45:42.175Z,9.10
2023-01-13T00:48:10.050Z,9.10
2023-01-13T00:50:38.056Z,9.00
2023-01-13T00:53:05.958Z,9.00
2023-01-13T00:55:33.931Z,9.00
2023-01-13T00:58:03.572Z,9.00
2023-01-13T01:00:31.898Z,9.10
2023-01-13T01:03:01.373Z,9.10
2023-01-13T01:05:29.278Z,9.10
2023-01-13T01:07:57.176Z,9.10
2023-01-13T01:10:25.095Z,9.10
2023-01-13T01:12:53.043Z,9.10
2023-01-13T01:15:20.934Z,9.10
2023-01-13T01:17:48.846Z,9.10
2023-01-13T01:20:18.508Z,9.10
2023-01-13T01:22:46.461Z,9.10
2023-01-13T01:25:14.396Z,9.20
2023-01-13T01:27:42.344Z,9.20
2023-01-13T01:30:11.572Z,9.20
2023-01-13T01:32:39.460Z,9.20
2023-01-13T01:35:11.104Z,9.20
2023-01-13T01:37:40.541Z,9.30
2023-01-13T01:40:09.551Z,9.20
2023-01-13T01:42:54.705Z,9.30
2023-01-13T01:45:23.516Z,9.30
2023-01-13T01:47:55.230Z,9.40
2023-01-13T01:50:24.204Z,9.30
2023-01-13T01:52:57.754Z,9.30
2023-01-13T01:55:30.444Z,9.30
2023-01-13T01:58:03.211Z,9.30
2023-01-13T02:00:31.321Z,9.30
2023-01-13T02:03:01.259Z,9.40
2023-01-13T02:05:29.233Z,9.30
2023-01-13T02:08:00.947Z,9.30
2023-01-13T02:10:30.677Z,9.30
2023-01-13T02:13:02.914Z,9.30
2023-01-13T02:15:39.572Z,9.20
2023-01-13T02:18:21.308Z,9.30
2023-01-13T02:21:36.621Z,9.20
2023-01-13T02:24:48.857Z,9.20
2023-01-13T02:27:44.387Z,9.30
2023-01-13T02:30:47.890Z,9.30
2023-01-13T02:33:28.115Z,9.30
2023-01-13T02:36:02.718Z,9.30
2023-01-13T02:38:35.960Z,9.30
2023-01-13T02:41:22.448Z,9.30
2023-01-13T02:44:10.808Z,9.20
2023-01-13T02:46:49.681Z,9.30
2023-01-13T02:49:24.895Z,9.30
2023-01-13T02:51:55.963Z,9.30
2023-01-13T02:54:28.344Z,9.30
2023-01-13T02:56:58.883Z,9.40
2023-01-13T02:59:27.833Z,9.30
2023-01-13T03:01:58.523Z,9.30
2023-01-13T03:04:49.665Z,9.30
2023-01-13T03:07:49.998Z,9.30
2023-01-13T03:10:29.665Z,9.30
2023-01-13T03:13:08.524Z,9.30
2023-01-13T03:15:47.468Z,9.30
2023-01-13T03:18:33.047Z,9.40
2023-01-13T03:21:08.615Z,9.40
2023-01-13T03:23:42.283Z,9.30
2023-01-13T03:26:21.228Z,9.30
2023-01-13T03:28:57.550Z,9.30
2023-01-13T03:31:32.460Z,9.40
2023-01-13T03:34:06.464Z,9.30
2023-01-13T03:36:36.902Z,9.40
2023-01-13T03:39:09.880Z,9.30
2023-01-13T03:41:43.136Z,9.30
2023-01-13T03:44:22.136Z,9.30
2023-01-13T03:46:59.531Z,9.30
2023-01-13T03:49:35.678Z,9.40
2023-01-13T03:52:08.427Z,9.40
2023-01-13T03:54:43.697Z,9.40
2023-01-13T03:57:15.671Z,9.40
2023-01-13T03:59:48.390Z,9.40
2023-01-13T04:02:22.763Z,9.40
2023-01-13T04:04:57.815Z,9.50
2023-01-13T04:07:35.083Z,9.50
2023-01-13T04:10:07.693Z,9.40
2023-01-13T04:12:53.462Z,9.40
2023-01-13T04:15:23.934Z,9.40
2023-01-13T04:17:52.739Z,9.50
2023-01-13T04:20:22.322Z,9.40
2023-01-13T04:22:50.223Z,9.30
2023-01-13T04:25:18.148Z,9.40
2023-01-13T04:27:46.026Z,9.40
2023-01-13T04:30:14.413Z,9.40
2023-01-13T04:32:42.382Z,9.30
2023-01-13T04:35:10.607Z,9.20
2023-01-13T04:37:42.369Z,9.20
2023-01-13T04:40:11.332Z,9.20
2023-01-13T04:42:39.344Z,9.20
2023-01-13T04:45:08.402Z,9.20
2023-01-13T04:47:37.095Z,9.30
2023-01-13T04:50:05.896Z,9.20
2023-01-13T04:52:33.868Z,9.20
2023-01-13T04:55:03.168Z,9.10
2023-01-13T04:57:33.252Z,9.00
2023-01-13T05:00:01.275Z,8.90
2023-01-13T05:02:29.473Z,8.80
2023-01-13T05:04:57.775Z,8.80
2023-01-13T05:07:25.770Z,8.80
2023-01-13T05:09:53.678Z,8.80
2023-01-13T05:12:40.379Z,8.50
2023-01-13T05:15:26.664Z,8.00
2023-01-13T05:17:54.641Z,7.80
2023-01-13T05:20:22.565Z,7.60
2023-01-13T05:23:07.793Z,7.50
2023-01-13T05:25:38.963Z,7.50
2023-01-13T05:28:08.701Z,7.50
2023-01-13T05:30:42.241Z,7.50
2023-01-13T05:33:10.313Z,7.50
2023-01-13T05:35:39.752Z,7.60
2023-01-13T05:38:07.772Z,7.50
2023-01-13T05:40:53.439Z,7.60
2023-01-13T05:43:25.926Z,7.60
2023-01-13T05:45:58.456Z,7.50
2023-01-13T05:48:27.704Z,7.50
2023-01-13T05:50:56.671Z,7.50
2023-01-13T05:53:25.229Z,7.60
2023-01-13T05:55:53.925Z,7.60
2023-01-13T05:58:25.154Z,7.60
2023-01-13T06:00:53.536Z,7.60
2023-01-13T06:03:21.735Z,7.60
2023-01-13T06:05:51.361Z,7.50
2023-01-13T06:08:19.759Z,7.50
2023-01-13T06:10:47.671Z,7.60
2023-01-13T06:13:15.636Z,7.60
2023-01-13T06:15:45.024Z,7.70
2023-01-13T06:18:12.975Z,7.60
2023-01-13T06:20:40.927Z,7.60
2023-01-13T06:23:10.790Z,7.60
2023-01-13T06:25:45.558Z,7.60
2023-01-13T06:28:13.637Z,7.50
2023-01-13T06:30:47.236Z,7.50
2023-01-13T06:33:18.055Z,7.50
2023-01-13T06:35:53.921Z,7.50
2023-01-13T06:38:27.732Z,7.40
2023-01-13T06:40:56.339Z,7.40
2023-01-13T06:43:23.436Z,7.40
2023-01-13T06:45:54.961Z,7.40
2023-01-13T06:48:25.610Z,7.40
2023-01-13T06:50:53.654Z,7.30
2023-01-13T06:53:21.673Z,7.30
2023-01-13T06:55:49.673Z,7.30
2023-01-13T06:58:17.815Z,7.30
2023-01-13T07:00:49.643Z,7.20
2023-01-13T07:03:20.067Z,7.20
2023-01-13T07:05:53.813Z,7.10
2023-01-13T07:08:22.415Z,7.20
2023-01-13T07:10:51.325Z,7.10
2023-01-13T07:13:37.345Z,7.10
2023-01-13T07:16:07.225Z,7.00
2023-01-13T07:18:37.422Z,6.90
2023-01-13T07:21:07.226Z,6.90
2023-01-13T07:23:36.617Z,6.70
2023-01-13T07:26:05.874Z,6.80
2023-01-13T07:28:34.685Z,6.90
2023-01-13T07:31:05.392Z,6.80
2023-01-13T07:33:33.869Z,6.80
2023-01-13T07:36:05.330Z,6.70
2023-01-13T07:38:34.374Z,6.70
2023-01-13T07:41:24.777Z,6.80
2023-01-13T07:43:52.523Z,6.80
2023-01-13T07:46:20.728Z,6.80
2023-01-13T07:48:49.786Z,6.90
2023-01-13T07:51:19.123Z,6.90
2023-01-13T07:53:46.989Z,7.00
2023-01-13T07:56:15.107Z,7.00
2023-01-13T07:58:44.403Z,7.00
2023-01-13T08:01:14.286Z,7.00
2023-01-13T08:03:42.551Z,6.90
2023-01-13T08:06:11.739Z,7.00
2023-01-13T08:08:41.225Z,7.00
2023-01-13T08:11:10.235Z,7.10
2023-01-13T08:13:38.202Z,7.00
2023-01-13T08:16:08.464Z,7.10
2023-01-13T08:18:37.603Z,7.20
2023-01-13T08:21:07.886Z,7.20
2023-01-13T08:23:36.661Z,7.20
2023-01-13T08:26:08.347Z,7.20
2023-01-13T08:28:37.267Z,7.20
2023-01-13T08:31:09.902Z,7.20
2023-01-13T08:33:40.789Z,7.30
2023-01-13T08:36:11.030Z,7.30
2023-01-13T08:38:41.172Z,7.30
2023-01-13T08:41:15.983Z,7.30
2023-01-13T08:43:44.581Z,7.30
2023-01-13T08:46:14.660Z,7.30
2023-01-13T08:48:42.584Z,7.30
2023-01-13T08:51:10.827Z,7.20
2023-01-13T08:53:38.828Z,7.20
2023-01-13T08:56:10.903Z,7.10
2023-01-13T08:58:40.889Z,7.10
2023-01-13T09:01:10.084Z,7.00
2023-01-13T09:03:39.083Z,7.20
2023-01-13T09:06:07.455Z,7.40
2023-01-13T09:08:35.402Z,7.50
2023-01-13T09:11:26.097Z,7.60
2023-01-13T09:13:54.469Z,7.70
2023-01-13T09:16:22.401Z,7.70
2023-01-13T09:18:50.331Z,7.60
2023-01-13T09:21:22.725Z,7.60
2023-01-13T09:23:50.705Z,7.60
2023-01-13T09:26:22.921Z,7.60
2023-01-13T09:28:50.973Z,7.70
2023-01-13T09:31:20.629Z,7.80
2023-01-13T09:34:06.214Z,7.80
2023-01-13T09:36:34.162Z,7.90
2023-01-13T09:39:02.312Z,8.00
2023-01-13T09:41:51.862Z,8.10
2023-01-13T09:44:26.382Z,8.20
2023-01-13T09:47:01.189Z,8.10
2023-01-13T09:49:35.101Z,8.20
2023-01-13T09:52:08.728Z,8.10
2023-01-13T09:54:42.200Z,8.20
2023-01-13T09:57:11.764Z,8.30
2023-01-13T09:59:39.960Z,8.40
2023-01-13T10:02:32.919Z,8.40
2023-01-13T10:05:11.200Z,8.50
2023-01-13T10:07:44.402Z,8.60
2023-01-13T10:10:17.986Z,8.70
2023-01-13T10:13:06.017Z,8.70
2023-01-13T10:15:34.585Z,8.80
2023-01-13T10:18:13.891Z,8.80
2023-01-13T10:20:53.369Z,8.80
2023-01-13T10:23:52.408Z,8.80
2023-01-13T10:26:35.280Z,8.80
2023-01-13T10:29:03.281Z,8.80
2023-01-13T10:31:31.198Z,8.90
2023-01-13T10:34:01.867Z,8.90
2023-01-13T10:36:29.847Z,8.90
2023-01-13T10:39:09.152Z,9.00
2023-01-13T10:41:37.205Z,9.10
2023-01-13T10:44:09.609Z,9.10
2023-01-13T10:46:52.843Z,9.00
2023-01-13T10:49:32.676Z,9.10
2023-01-13T10:52:02.141Z,9.30
2023-01-13T10:54:33.019Z,9.50
2023-01-13T10:57:16.122Z,9.60
2023-01-13T10:59:44.245Z,9.70
2023-01-13T11:02:26.229Z,9.40
2023-01-13T11:05:10.545Z,9.60
2023-01-13T11:07:41.402Z,9.40
2023-01-13T11:10:20.722Z,9.50
2023-01-13T11:12:59.288Z,9.50
2023-01-13T11:15:39.962Z,9.60
2023-01-13T11:18:16.259Z,9.90
2023-01-13T11:20:48.590Z,9.90
2023-01-13T11:23:22.923Z,9.80
2023-01-13T11:25:55.903Z,9.70
2023-01-13T11:28:38.522Z,9.80
2023-01-13T11:31:13.055Z,9.90
2023-01-13T11:33:46.256Z,10.10
2023-01-13T11:36:20.674Z,10.00
2023-01-13T11:38:52.236Z,9.90
2023-01-13T11:41:33.363Z,10.00
2023-01-13T11:44:11.136Z,9.90
2023-01-13T11:46:41.249Z,10.10
2023-01-13T11:49:15.624Z,9.90
2023-01-13T11:51:51.008Z,10.00
2023-01-13T11:54:48.793Z,10.00
2023-01-13T11:57:48.226Z,9.90
2023-01-13T12:00:28.374Z,9.80
2023-01-13T12:03:11.143Z,9.70
2023-01-13T12:05:45.041Z,9.80
2023-01-13T12:08:19.774Z,9.90
2023-01-13T12:11:02.383Z,9.90
2023-01-13T12:13:40.366Z,9.70
2023-01-13T12:16:17.483Z,9.70
2023-01-13T12:19:28.129Z,9.80
2023-01-13T12:22:02.226Z,9.90
2023-01-13T12:24:36.196Z,10.10
2023-01-13T12:27:11.278Z,10.10
2023-01-13T12:29:42.489Z,10.20
2023-01-13T12:32:16.075Z,10.40
2023-01-13T12:34:54.111Z,10.40
2023-01-13T12:37:27.270Z,10.60
2023-01-13T12:40:29.727Z,10.80
2023-01-13T12:43:30.002Z,10.70
2023-01-13T12:46:31.146Z,10.60
2023-01-13T12:49:07.576Z,10.60
2023-01-13T12:51:40.533Z,10.70
2023-01-13T12:54:55.127Z,10.70
2023-01-13T12:57:27.598Z,10.30
2023-01-13T13:00:14.298Z,10.10
2023-01-13T13:02:43.649Z,9.90
2023-01-13T13:05:44.933Z,10.00
2023-01-13T13:08:21.741Z,10.00
2023-01-13T13:11:35.886Z,9.90
2023-01-13T13:14:05.083Z,9.80
2023-01-13T13:16:56.975Z,9.60
2023-01-13T13:19:48.342Z,9.50
2023-01-13T13:22:45.710Z,9.30
2023-01-13T13:25:28.057Z,9.10
2023-01-13T13:28:18.667Z,9.00
2023-01-13T13:31:18.237Z,8.70
2023-01-13T13:34:02.633Z,8.60
2023-01-13T13:36:51.404Z,8.30
2023-01-13T13:39:40.718Z,8.40
2023-01-13T13:42:32.272Z,8.50
2023-01-13T13:45:21.429Z,8.60
2023-01-13T13:47:49.449Z,8.60
2023-01-13T13:50:20.896Z,8.50
2023-01-13T13:52:55.191Z,8.50
2023-01-13T13:55:25.057Z,8.50
2023-01-13T13:57:57.307Z,8.50
2023-01-13T14:00:29.608Z,8.60
2023-01-13T14:03:00.797Z,8.50
2023-01-13T14:05:30.870Z,8.40
2023-01-13T14:08:03.988Z,8.50
2023-01-13T14:10:34.367Z,8.50
2023-01-13T14:13:03.976Z,8.40
2023-01-13T14:15:36.673Z,8.40
2023-01-13T14:18:12.319Z,8.30
2023-01-13T14:20:40.964Z,8.10
2023-01-13T14:23:18.823Z,8.10
2023-01-13T14:25:51.882Z,8.00
2023-01-13T14:28:25.079Z,8.00
2023-01-13T14:30:55.142Z,8.00
2023-01-13T14:33:33.971Z,8.10
2023-01-13T14:36:16.504Z,8.10
2023-01-13T14:38:47.259Z,8.20
2023-01-13T14:41:35.264Z,8.20
2023-01-13T14:44:14.325Z,8.20
2023-01-13T14:46:45.924Z,8.20
2023-01-13T14:49:24.843Z,8.20
2023-01-13T14:51:53.150Z,8.10
2023-01-13T14:54:43.411Z,8.20
2023-01-13T14:57:27.416Z,8.20
2023-01-13T15:00:18.853Z,8.10
2023-01-13T15:02:49.251Z,8.20
2023-01-13T15:05:42.682Z,8.20
2023-01-13T15:08:30.302Z,8.20
2023-01-13T15:11:00.846Z,8.30
2023-01-13T15:13:47.192Z,8.30
2023-01-13T15:16:25.035Z,8.20
2023-01-13T15:18:56.446Z,8.20
2023-01-13T15:21:27.559Z,8.20
2023-01-13T15:23:55.567Z,8.30
2023-01-13T15:26:25.900Z,8.30
2023-01-13T15:28:55.643Z,8.30
2023-01-13T15:31:24.847Z,8.30
2023-01-13T15:33:54.651Z,8.30
2023-01-13T15:36:29.162Z,8.20
2023-01-13T15:38:57.962Z,8.20
2023-01-13T15:41:45.885Z,8.30
2023-01-13T15:44:32.434Z,8.30
2023-01-13T15:47:02.412Z,8.30
2023-01-13T15:49:36.577Z,8.10
2023-01-13T15:52:05.447Z,8.10
2023-01-13T15:54:33.369Z,8.20
2023-01-13T15:57:01.896Z,8.10
2023-01-13T15:59:29.911Z,8.10
2023-01-13T16:02:00.593Z,8.10
2023-01-13T16:04:28.858Z,8.10
2023-01-13T16:07:01.063Z,8.10
2023-01-13T16:09:29.065Z,8.10
2023-01-13T16:11:58.659Z,8.10
2023-01-13T16:14:26.580Z,8.10
2023-01-13T16:16:54.505Z,8.00
2023-01-13T16:19:22.463Z,8.10
2023-01-13T16:21:50.364Z,8.10
2023-01-13T16:24:20.043Z,8.00
2023-01-13T16:26:47.936Z,7.90
2023-01-13T16:29:15.844Z,7.90
2023-01-13T16:31:44.139Z,7.80
2023-01-13T16:34:12.064Z,7.80
2023-01-13T16:36:40.041Z,7.90
2023-01-13T16:39:24.448Z,7.80
2023-01-13T16:41:52.648Z,7.80
2023-01-13T16:44:20.718Z,7.80
2023-01-13T16:46:48.668Z,7.80
2023-01-13T16:49:18.191Z,7.80
2023-01-13T16:51:46.450Z,7.80
2023-01-13T16:54:14.356Z,7.70
2023-01-13T16:56:44.420Z,7.70
2023-01-13T16:59:14.924Z,7.70
2023-01-13T17:01:44.906Z,7.70
2023-01-13T17:04:17.460Z,7.70
2023-01-13T17:06:51.470Z,7.70
2023-01-13T17:09:21.588Z,7.70
2023-01-13T17:11:51.239Z,7.80
2023-01-13T17:14:22.912Z,7.80
2023-01-13T17:16:52.537Z,7.80
2023-01-13T17:19:21.842Z,7.70
2023-01-13T17:21:51.518Z,7.60
2023-01-13T17:24:20.449Z,7.60
2023-01-13T17:26:51.628Z,7.50
2023-01-13T17:29:22.139Z,7.50
2023-01-13T17:31:50.253Z,7.50
2023-01-13T17:34:18.318Z,7.40
2023-01-13T17:36:46.344Z,7.30
2023-01-13T17:39:18.042Z,7.30
2023-01-13T17:41:46.338Z,7.30
2023-01-13T17:44:16.422Z,7.30
2023-01-13T17:46:44.757Z,7.40
2023-01-13T17:49:13.301Z,7.30
2023-01-13T17:51:41.407Z,7.30
2023-01-13T17:54:11.998Z,7.40
2023-01-13T17:56:40.353Z,7.40
2023-01-13T17:59:10.374Z,7.40
2023-01-13T18:01:40.157Z,7.40
2023-01-13T18:04:08.580Z,7.30
2023-01-13T18:06:38.796Z,7.20
2023-01-13T18:09:06.714Z,7.30
2023-01-13T18:11:34.781Z,7.20
2023-01-13T18:14:02.763Z,7.20
2023-01-13T18:16:33.816Z,7.30
2023-01-13T18:19:29.092Z,7.30
2023-01-13T18:22:14.447Z,7.30
2023-01-13T18:25:01.838Z,7.40
2023-01-13T18:27:34.154Z,7.40
2023-01-13T18:30:02.769Z,7.40
2023-01-13T18:32:33.512Z,7.40
2023-01-13T18:35:06.460Z,7.50
2023-01-13T18:37:40.247Z,7.60
2023-01-13T18:40:10.482Z,7.50
2023-01-13T18:42:55.398Z,7.50
2023-01-13T18:45:25.729Z,7.50
2023-01-13T18:47:54.888Z,7.40
2023-01-13T18:50:24.661Z,7.40
2023-01-13T18:52:54.712Z,7.40
2023-01-13T18:55:22.690Z,7.40
2023-01-13T18:57:55.156Z,7.40
2023-01-13T19:00:24.933Z,7.40
2023-01-13T19:05:38.245Z,7.30
2023-01-13T19:08:06.655Z,7.30
2023-01-13T19:10:39.884Z,7.50
2023-01-13T19:13:07.824Z,7.50
2023-01-13T19:15:37.633Z,7.50
2023-01-13T19:18:05.834Z,7.50
2023-01-13T19:20:35.128Z,7.50
2023-01-13T19:23:05.885Z,7.60
2023-01-13T19:25:40.240Z,7.50
2023-01-13T19:28:12.624Z,7.50
2023-01-13T19:30:41.135Z,7.50
2023-01-13T19:33:09.063Z,7.40
2023-01-13T19:35:39.566Z,7.40
2023-01-13T19:38:10.706Z,7.50
2023-01-13T19:40:38.633Z,7.50
2023-01-13T19:43:24.239Z,7.60
2023-01-13T19:45:52.269Z,7.70
2023-01-13T19:48:25.620Z,7.70
2023-01-13T19:50:55.061Z,7.60
2023-01-13T19:53:23.143Z,7.50
2023-01-13T19:55:51.790Z,7.50
2023-01-13T19:58:25.958Z,7.40
2023-01-13T20:00:54.911Z,7.40
2023-01-13T20:03:26.133Z,7.40
2023-01-13T20:06:05.237Z,7.40
2023-01-13T20:08:33.463Z,7.40
2023-01-13T20:11:15.450Z,7.40
2023-01-13T20:13:43.494Z,7.40
2023-01-13T20:16:11.659Z,7.40
2023-01-13T20:18:39.822Z,7.30
2023-01-13T20:21:09.669Z,7.20
2023-01-13T20:23:40.906Z,7.20
2023-01-13T20:26:09.575Z,7.20
2023-01-13T20:28:40.378Z,7.20
2023-01-13T20:31:09.669Z,7.20
2023-01-13T20:33:38.624Z,7.20
2023-01-13T20:36:07.858Z,7.30
2023-01-13T20:38:38.491Z,7.20
2023-01-13T20:41:22.092Z,7.20
2023-01-13T20:43:50.694Z,7.10
2023-01-13T20:46:18.777Z,7.10
2023-01-13T20:48:46.955Z,7.00
2023-01-13T20:51:15.002Z,7.10
2023-01-13T20:53:44.443Z,7.20
2023-01-13T20:56:15.607Z,7.10
2023-01-13T20:58:44.072Z,7.20
2023-01-13T21:01:12.141Z,7.20
2023-01-13T21:03:40.147Z,7.00
2023-01-13T21:06:08.666Z,7.00
2023-01-13T21:08:36.590Z,6.90
2023-01-13T21:11:10.456Z,6.90
2023-01-13T21:13:56.047Z,6.80
2023-01-13T21:16:24.151Z,7.00
2023-01-13T21:19:10.641Z,7.10
2023-01-13T21:21:38.930Z,7.10
2023-01-13T21:24:07.146Z,7.10
2023-01-13T21:26:36.726Z,7.10
2023-01-13T21:29:06.680Z,7.10
2023-01-13T21:31:34.905Z,7.20
2023-01-13T21:34:02.841Z,7.20
2023-01-13T21:36:30.942Z,7.30
2023-01-13T21:39:00.728Z,7.30
2023-01-13T21:41:46.482Z,7.20
2023-01-13T21:44:35.571Z,7.20
2023-01-13T21:47:20.932Z,7.20
2023-01-13T21:49:48.852Z,7.20
2023-01-13T21:52:17.067Z,7.20
2023-01-13T21:55:02.891Z,7.10
2023-01-13T21:57:30.842Z,7.10
2023-01-13T22:00:00.173Z,7.20
2023-01-13T22:02:31.938Z,7.10
2023-01-13T22:05:00.815Z,7.10
2023-01-13T22:07:29.346Z,7.10
2023-01-13T22:09:57.377Z,7.10
2023-01-13T22:12:27.931Z,6.90
2023-01-13T22:14:56.491Z,6.80
2023-01-13T22:17:28.477Z,6.70
2023-01-13T22:19:57.294Z,6.80
2023-01-13T22:22:26.746Z,6.80
2023-01-13T22:24:55.404Z,6.90
2023-01-13T22:27:24.901Z,7.00
2023-01-13T22:29:53.843Z,7.00
2023-01-13T22:32:22.703Z,7.00
2023-01-13T22:34:52.132Z,7.00
2023-01-13T22:37:20.151Z,7.00
2023-01-13T22:39:48.194Z,7.00
2023-01-13T22:42:16.096Z,7.00
2023-01-13T22:44:44.580Z,7.00
2023-01-13T22:47:12.631Z,7.00
2023-01-13T22:49:42.019Z,7.00
2023-01-13T22:52:11.418Z,6.90
2023-01-13T22:54:39.463Z,6.90
2023-01-13T22:57:07.529Z,7.00
2023-01-13T22:59:35.482Z,7.00
2023-01-13T23:02:03.433Z,7.00
2023-01-13T23:04:31.436Z,7.00
2023-01-13T23:07:00.124Z,7.00
2023-01-13T23:09:30.808Z,7.00
2023-01-13T23:11:59.378Z,7.00
2023-01-13T23:14:30.582Z,7.00
2023-01-13T23:16:58.575Z,7.00
2023-01-13T23:19:28.708Z,7.00
2023-01-13T23:21:56.732Z,7.00
2023-01-13T23:24:25.881Z,7.00
2023-01-13T23:26:55.201Z,7.00
2023-01-13T23:29:26.116Z,7.00
2023-01-13T23:31:54.078Z,7.00
2023-01-13T23:34:22.119Z,7.00
2023-01-13T23:36:50.123Z,7.00
2023-01-13T23:39:18.052Z,7.00
2023-01-13T23:41:46.075Z,7.10
2023-01-13T23:44:18.213Z,7.10
2023-01-13T23:46:49.165Z,7.10
2023-01-13T23:49:23.590Z,7.00
2023-01-13T23:51:53.852Z,7.00
2023-01-13T23:54:23.454Z,7.10
2023-01-13T23:56:53.201Z,7.10
2023-01-13T23:59:22.696Z,7.00
